createdAt,value
2023-01-05T00:01:42.699Z,99857.00
2023-01-05T00:04:10.237Z,99851.78
2023-01-05T00:06:37.728Z,99857.00
2023-01-05T00:09:06.508Z,99855.28
2023-01-05T00:11:51.983Z,99865.69
2023-01-05T00:14:47.975Z,99860.50
2023-01-05T00:17:41.209Z,99863.97
2023-01-05T00:20:36.991Z,99865.69
2023-01-05T00:23:04.936Z,99870.91
2023-01-05T00:25:37.821Z,99856.13
2023-01-05T00:28:05.414Z,99865.69
2023-01-05T00:30:45.653Z,99866.53
2023-01-05T00:33:15.716Z,99871.78
2023-01-05T00:35:42.992Z,99872.66
2023-01-05T00:38:10.223Z,99871.84
2023-01-05T00:40:37.324Z,99864.88
2023-01-05T00:43:04.643Z,99864.91
2023-01-05T00:45:31.715Z,99857.06
2023-01-05T00:47:58.629Z,99858.81
2023-01-05T00:50:25.526Z,99854.47
2023-01-05T00:52:52.603Z,99851.88
2023-01-05T00:55:19.627Z,99857.97
2023-01-05T00:57:46.603Z,99865.78
2023-01-05T01:00:18.485Z,99866.66
2023-01-05T01:02:45.483Z,99857.09
2023-01-05T01:05:13.306Z,99850.16
2023-01-05T01:07:40.380Z,99851.88
2023-01-05T01:10:09.195Z,99862.28
2023-01-05T01:12:36.111Z,99855.34
2023-01-05T01:15:04.191Z,99863.16
2023-01-05T01:17:32.465Z,99857.94
2023-01-05T01:19:59.639Z,99858.81
2023-01-05T01:22:26.606Z,99864.91
2023-01-05T01:24:53.525Z,99857.09
2023-01-05T01:27:20.465Z,99856.25
2023-01-05T01:29:47.391Z,99858.84
2023-01-05T01:32:14.302Z,99858.84
2023-01-05T01:37:08.087Z,99859.72
2023-01-05T01:39:35.288Z,99857.97
2023-01-05T01:42:02.164Z,99859.69
2023-01-05T01:44:48.740Z,99858.84
2023-01-05T01:47:54.433Z,99853.59
2023-01-05T01:50:29.286Z,99862.28
2023-01-05T01:53:04.636Z,99861.41
2023-01-05T01:55:32.706Z,99860.56
2023-01-05T01:58:03.397Z,99856.22
2023-01-05T02:00:30.308Z,99858.81
2023-01-05T02:02:57.303Z,99863.19
2023-01-05T02:05:32.039Z,99852.78
2023-01-05T02:07:59.037Z,99856.22
2023-01-05T02:10:58.144Z,99850.13
2023-01-05T02:13:59.243Z,99859.72
2023-01-05T02:17:05.885Z,99851.91
2023-01-05T02:20:22.299Z,99865.81
2023-01-05T02:23:38.372Z,99847.56
2023-01-05T02:26:27.447Z,99856.25
2023-01-05T02:29:10.559Z,99837.13
2023-01-05T02:32:09.893Z,99839.72
2023-01-05T02:34:54.121Z,99836.22
2023-01-05T02:38:16.343Z,99841.44
2023-01-05T02:40:49.291Z,99830.13
2023-01-05T02:43:21.728Z,99827.56
2023-01-05T02:45:49.591Z,99832.75
2023-01-05T02:48:16.653Z,99835.38
2023-01-05T02:51:01.097Z,99832.75
2023-01-05T02:53:43.514Z,99828.41
2023-01-05T02:56:17.466Z,99831.91
2023-01-05T02:58:52.730Z,99844.94
2023-01-05T03:01:39.895Z,99837.09
2023-01-05T03:04:24.177Z,99826.69
2023-01-05T03:07:00.091Z,99845.81
2023-01-05T03:09:38.331Z,99840.59
2023-01-05T03:12:48.530Z,99844.06
2023-01-05T03:15:37.378Z,99841.44
2023-01-05T03:18:16.046Z,99840.56
2023-01-05T03:20:48.042Z,99841.44
2023-01-05T03:23:37.092Z,99844.91
2023-01-05T03:26:25.775Z,99844.06
2023-01-05T03:29:16.962Z,99860.56
2023-01-05T03:32:34.900Z,99838.84
2023-01-05T03:35:31.694Z,99855.34
2023-01-05T03:38:17.923Z,99843.19
2023-01-05T03:40:46.353Z,99851.00
2023-01-05T03:43:13.662Z,99843.19
2023-01-05T03:45:54.694Z,99846.66
2023-01-05T03:48:23.349Z,99844.03
2023-01-05T03:50:50.483Z,99845.81
2023-01-05T03:53:17.561Z,99855.38
2023-01-05T03:55:44.504Z,99844.06
2023-01-05T03:58:11.546Z,99838.00
2023-01-05T04:00:38.585Z,99848.44
2023-01-05T04:03:05.598Z,99856.25
2023-01-05T04:05:32.591Z,99856.25
2023-01-05T04:07:59.636Z,99855.38
2023-01-05T04:10:26.667Z,99864.94
2023-01-05T04:12:53.576Z,99853.63
2023-01-05T04:15:20.550Z,99871.03
2023-01-05T04:17:47.524Z,99866.66
2023-01-05T04:20:14.524Z,99875.38
2023-01-05T04:22:41.493Z,99875.34
2023-01-05T04:25:08.854Z,99883.19
2023-01-05T04:27:35.805Z,99877.97
2023-01-05T04:30:02.992Z,99873.63
2023-01-05T04:32:30.034Z,99877.94
2023-01-05T04:34:56.966Z,99884.03
2023-01-05T04:37:24.040Z,99883.16
2023-01-05T04:39:50.942Z,99889.25
2023-01-05T04:42:17.976Z,99896.19
2023-01-05T04:44:44.915Z,99883.16
2023-01-05T04:47:11.863Z,99894.47
2023-01-05T04:49:38.753Z,99892.75
2023-01-05T04:52:06.296Z,99902.31
2023-01-05T04:54:33.228Z,99904.94
2023-01-05T04:57:00.136Z,99923.16
2023-01-05T04:59:27.058Z,99911.84
2023-01-05T05:01:54.106Z,99923.16
2023-01-05T05:04:21.108Z,99903.13
2023-01-05T05:06:48.077Z,99928.31
2023-01-05T05:09:14.957Z,99929.16
2023-01-05T05:11:41.880Z,99910.03
2023-01-05T05:14:08.839Z,99924.81
2023-01-05T05:16:35.759Z,99938.72
2023-01-05T05:19:02.682Z,99922.19
2023-01-05T05:21:29.783Z,99936.97
2023-01-05T05:24:06.427Z,99938.69
2023-01-05T05:29:49.752Z,99939.53
2023-01-05T05:32:26.229Z,99926.47
2023-01-05T05:34:58.915Z,99927.34
2023-01-05T05:37:33.285Z,99934.25
2023-01-05T05:40:02.972Z,99931.63
2023-01-05T05:42:42.270Z,99935.06
2023-01-05T05:45:22.337Z,99925.53
2023-01-05T05:48:04.545Z,99927.25
2023-01-05T05:51:08.572Z,99922.94
2023-01-05T05:54:00.389Z,99932.50
2023-01-05T05:56:34.797Z,99929.88
2023-01-05T05:59:06.348Z,99936.88
2023-01-05T06:01:46.097Z,99953.41
2023-01-05T06:04:17.501Z,99966.44
2023-01-05T06:06:56.807Z,99966.44
2023-01-05T06:09:34.846Z,99975.97
2023-01-05T06:12:05.203Z,99980.34
2023-01-05T06:14:44.325Z,99990.75
2023-01-05T06:17:16.000Z,99982.03
2023-01-05T06:19:56.923Z,99969.75
2023-01-05T06:22:33.059Z,99980.13
2023-01-05T06:25:00.993Z,99983.56
2023-01-05T06:27:30.915Z,99991.38
2023-01-05T06:30:04.869Z,99993.97
2023-01-05T06:32:44.488Z,99980.94
2023-01-05T06:35:12.826Z,99987.03
2023-01-05T06:37:57.890Z,99990.47
2023-01-05T06:40:29.078Z,99987.81
2023-01-05T06:43:18.245Z,100003.44
2023-01-05T06:48:46.810Z,100013.88
2023-01-05T06:51:28.849Z,100011.28
2023-01-05T06:54:02.634Z,100012.16
2023-01-05T06:56:52.908Z,100022.59
2023-01-05T06:59:38.173Z,100035.59
2023-01-05T07:02:30.369Z,100031.28
2023-01-05T07:05:08.239Z,100045.22
2023-01-05T07:07:47.063Z,100041.75
2023-01-05T07:10:32.537Z,100026.16
2023-01-05T07:13:20.580Z,100029.66
2023-01-05T07:15:50.580Z,100035.72
2023-01-05T07:18:22.050Z,100039.19
2023-01-05T07:21:04.435Z,100047.00
2023-01-05T07:24:30.288Z,100047.84
2023-01-05T07:27:21.239Z,100043.50
2023-01-05T07:29:52.465Z,100049.59
2023-01-05T07:32:25.841Z,100050.50
2023-01-05T07:34:56.908Z,100055.69
2023-01-05T07:37:33.030Z,100056.56
2023-01-05T07:40:15.937Z,100069.56
2023-01-05T07:42:56.082Z,100061.75
2023-01-05T07:46:15.357Z,100073.88
2023-01-05T07:49:14.015Z,100074.72
2023-01-05T07:51:50.887Z,100079.91
2023-01-05T07:58:00.217Z,100086.84
2023-01-05T08:00:51.450Z,100099.81
2023-01-05T08:03:34.409Z,100114.56
2023-01-05T08:06:20.042Z,100118.00
2023-01-05T08:09:29.403Z,100108.44
2023-01-05T08:12:11.324Z,100121.47
2023-01-05T08:14:50.353Z,100125.84
2023-01-05T08:17:26.665Z,100130.28
2023-01-05T08:20:03.641Z,100130.34
2023-01-05T08:22:41.137Z,100138.25
2023-01-05T08:25:51.996Z,100133.09
2023-01-05T08:28:42.474Z,100135.78
2023-01-05T08:34:12.809Z,100145.63
2023-01-05T08:37:15.856Z,100139.75
2023-01-05T08:40:16.596Z,100142.53
2023-01-05T08:43:19.411Z,100149.53
2023-01-05T08:46:30.698Z,100146.91
2023-01-05T08:49:32.549Z,100147.78
2023-01-05T08:53:04.933Z,100157.34
2023-01-05T08:55:54.493Z,100161.72
2023-01-05T08:59:07.405Z,100149.53
2023-01-05T09:02:02.513Z,100163.47
2023-01-05T09:05:34.613Z,100164.38
2023-01-05T09:08:40.683Z,100177.28
2023-01-05T09:16:11.098Z,100180.19
2023-01-05T09:19:21.178Z,100180.97
2023-01-05T09:22:30.011Z,100199.19
2023-01-05T09:33:17.027Z,100226.03
2023-01-05T09:36:19.182Z,100221.38
2023-01-05T09:39:28.585Z,100208.97
2023-01-05T09:42:21.131Z,100224.81
2023-01-05T09:59:05.872Z,100268.91
2023-01-05T10:02:41.256Z,100248.84
2023-01-05T10:06:43.853Z,100258.38
2023-01-05T10:13:15.715Z,100284.28
2023-01-05T10:28:01.000Z,100263.22
2023-01-05T10:39:44.463Z,100297.88
2023-01-05T10:47:59.899Z,100299.59
2023-01-05T10:51:26.673Z,100280.53
2023-01-05T10:55:34.274Z,100303.97
2023-01-05T11:02:25.342Z,100303.19
2023-01-05T11:08:57.400Z,100291.97
2023-01-05T12:38:11.551Z,100423.69
2023-01-05T12:45:10.005Z,100421.97
2023-01-05T12:48:21.331Z,100429.72
2023-01-05T12:55:51.053Z,100460.09
2023-01-05T12:59:05.448Z,100449.66
2023-01-05T13:06:34.526Z,100463.75
2023-01-05T13:09:26.574Z,100490.78
2023-01-05T13:12:17.233Z,100486.47
2023-01-05T13:15:20.749Z,100502.97
2023-01-05T13:17:54.803Z,100509.91
2023-01-05T13:21:12.736Z,100526.38
2023-01-05T13:27:58.567Z,100515.06
2023-01-05T13:31:09.760Z,100535.00
2023-01-05T13:34:02.438Z,100535.88
2023-01-05T13:37:32.038Z,100547.19
2023-01-05T13:41:04.071Z,100549.66
2023-01-05T13:44:20.355Z,100573.06
2023-01-05T13:51:06.989Z,100570.31
2023-01-05T13:56:47.388Z,100578.00
2023-01-05T14:00:07.675Z,100597.09
2023-01-05T14:03:42.628Z,100609.22
2023-01-05T14:06:54.482Z,100611.84
2023-01-05T14:10:44.759Z,100612.75
2023-01-05T14:14:37.984Z,100617.06
2023-01-05T14:18:03.131Z,100627.38
2023-01-05T14:20:48.473Z,100630.78
2023-01-05T14:23:35.891Z,100640.16
2023-01-05T14:27:08.412Z,100652.22
2023-01-05T14:30:41.706Z,100660.69
2023-01-05T14:45:27.711Z,100707.69
2023-01-05T14:47:44.603Z,100692.16
2023-01-05T14:51:52.589Z,100728.53
2023-01-05T14:55:51.270Z,100716.44
2023-01-05T14:58:59.691Z,100713.72
2023-01-05T15:02:34.242Z,100750.97
2023-01-05T15:09:16.653Z,100770.97
2023-01-05T15:12:31.117Z,100767.44
2023-01-05T15:15:58.165Z,100776.09
2023-01-05T15:19:07.037Z,100790.72
2023-01-05T15:22:36.259Z,100792.44
2023-01-05T15:25:09.097Z,100810.63
2023-01-05T15:28:56.061Z,100811.44
2023-01-05T15:36:50.132Z,100818.16
2023-01-05T15:44:19.984Z,100845.78
2023-01-05T15:51:24.638Z,100854.44
2023-01-05T15:54:39.713Z,100852.59
2023-01-05T15:57:59.308Z,100860.28
2023-01-05T16:05:42.905Z,100873.91
2023-01-05T16:08:54.695Z,100868.72
2023-01-05T16:11:40.487Z,100872.13
2023-01-05T16:14:53.516Z,100886.69
2023-01-05T16:21:35.339Z,100893.53
2023-01-05T16:24:34.942Z,100899.59
2023-01-05T16:27:17.253Z,100895.19
2023-01-05T16:30:04.318Z,100907.25
2023-01-05T16:32:40.433Z,100909.81
2023-01-05T16:36:06.771Z,100921.94
2023-01-05T16:43:30.677Z,100928.00
2023-01-05T16:50:35.619Z,100938.50
2023-01-05T16:50:58.969Z,100934.13
2023-01-05T16:54:08.637Z,100936.72
2023-01-05T16:57:42.038Z,100927.22
2023-01-05T17:00:55.892Z,100942.03
2023-01-05T17:04:00.240Z,100946.38
2023-01-05T17:07:21.032Z,100946.38
2023-01-05T17:13:26.795Z,100944.59
2023-01-05T17:16:21.700Z,100958.41
2023-01-05T17:19:00.723Z,100965.34
2023-01-05T17:24:34.670Z,100978.16
2023-01-05T17:37:20.141Z,100987.56
2023-01-05T17:41:05.386Z,100991.81
2023-01-05T17:43:48.927Z,100998.72
2023-01-05T17:46:55.705Z,100992.59
2023-01-05T17:50:10.870Z,101001.22
2023-01-05T17:53:44.285Z,100995.94
2023-01-05T18:04:05.020Z,101012.81
2023-01-05T18:22:47.609Z,101045.94
2023-01-05T18:41:45.648Z,101069.44
2023-01-05T18:44:28.728Z,101080.88
2023-01-05T18:59:16.644Z,101096.69
2023-01-05T19:02:41.706Z,101095.84
2023-01-05T19:21:16.768Z,101129.16
2023-01-05T19:24:30.824Z,101126.59
2023-01-05T19:27:34.501Z,101131.84
2023-01-05T19:33:49.387Z,101127.53
2023-01-05T19:44:10.621Z,101134.84
2023-01-05T19:47:17.111Z,101140.81
2023-01-05T19:50:34.966Z,101133.66
2023-01-05T19:53:19.732Z,101136.06
2023-01-05T20:00:45.846Z,101147.44
2023-01-05T20:03:00.855Z,101144.31
2023-01-05T20:03:44.917Z,101148.13
2023-01-05T20:09:39.813Z,101159.72
2023-01-05T20:15:50.927Z,101164.38
2023-01-05T20:19:06.490Z,101167.56
2023-01-05T20:22:01.529Z,101178.56
2023-01-05T20:25:03.173Z,101188.13
2023-01-05T20:28:08.879Z,101182.34
2023-01-05T20:32:09.451Z,101187.84
2023-01-05T20:35:38.317Z,101195.97
2023-01-05T20:49:14.662Z,101215.28
2023-01-05T20:52:17.960Z,101217.03
2023-01-05T20:55:02.107Z,101214.56
2023-01-05T20:57:48.657Z,101219.69
2023-01-05T21:05:12.154Z,101220.28
2023-01-05T21:08:49.665Z,101223.50
2023-01-05T21:11:30.927Z,101224.09
2023-01-05T21:14:12.989Z,101239.41
2023-01-05T21:24:18.850Z,101248.81
2023-01-05T21:27:21.617Z,101249.47
2023-01-05T21:30:01.025Z,101256.06
2023-01-05T21:33:14.767Z,101247.88
2023-01-05T21:40:06.616Z,101257.03
2023-01-05T21:43:23.558Z,101257.63
2023-01-05T21:49:59.712Z,101254.91
2023-01-05T21:51:13.194Z,101249.81
2023-01-05T21:52:48.347Z,101260.03
2023-01-05T21:55:45.671Z,101260.78
2023-01-05T21:58:25.550Z,101262.63
2023-01-05T22:04:13.133Z,101264.66
2023-01-05T22:07:09.202Z,101264.00
2023-01-05T22:09:57.156Z,101263.41
2023-01-05T22:16:00.145Z,101274.88
2023-01-05T22:19:59.327Z,101265.53
2023-01-05T22:22:43.201Z,101272.41
2023-01-05T22:25:33.999Z,101269.53
2023-01-05T22:28:30.251Z,101273.41
2023-01-05T22:31:44.929Z,101276.41
2023-01-05T22:39:36.260Z,101276.16
2023-01-05T22:47:37.625Z,101294.94
2023-01-05T22:51:00.135Z,101295.41
2023-01-05T22:54:18.199Z,101294.94
2023-01-05T23:04:22.526Z,101286.09
2023-01-05T23:14:50.335Z,101295.53
2023-01-05T23:17:34.547Z,101289.41
2023-01-05T23:20:53.749Z,101286.81
2023-01-05T23:23:55.433Z,101296.50
2023-01-05T23:26:34.548Z,101306.13
2023-01-05T23:29:22.091Z,101304.41
2023-01-05T23:36:04.108Z,101298.19
2023-01-05T23:36:24.167Z,101302.47
2023-01-05T23:38:56.959Z,101296.63
2023-01-05T23:41:35.829Z,101294.31
2023-01-05T23:44:33.352Z,101294.59
2023-01-05T23:47:16.257Z,101287.84
2023-01-05T23:50:06.349Z,101277.13
2023-01-05T23:56:15.091Z,101268.56
2023-01-05T23:59:26.788Z,101263.09
